Terminal Aerodrome Forecast
Issued by NWS

Home | Current Version | Previous Version | Graphics & Text | Print | Product List | Glossary On
Versions: 1 2 3 4 5 6 7 8 9 10 11 12 13 14
297
FTUS43 KMPX 022338
TAFRWF
TAF
KRWF 022338Z 0300/0324 28005KT P6SM OVC025
     FM031500 17006KT P6SM BKN028 OVC035
     FM031900 16009KT P6SM BKN035=

USA.gov is the U.S. government's official web portal to all federal, state and local government web resources and services.